Time;durP1;ratioP1;P1;durP2;ratioP2;P2;SDS_P1;SDS_P2;PMS_P1;PMS_P2;Temp;Humidity;BMP_temperature;BMP_pressure;BME280_temperature;BME280_humidity;BME280_pressure;Samples;Min_cycle;Max_cycle;Signal;HPM_P1;HPM_P2
2023/10/08 00:00:53;;;;;;;4.15;2.42;;;23.80;56.10;;;;;;5039247;28;20045;-62
2023/10/08 00:03:22;;;;;;;4.90;2.40;;;23.80;56.10;;;;;;5024769;28;20033;-62
2023/10/08 00:05:51;;;;;;;4.90;2.70;;;23.80;56.20;;;;;;5043949;28;20032;-62
2023/10/08 00:08:19;;;;;;;5.47;2.78;;;23.80;56.20;;;;;;5042076;28;20020;-63
2023/10/08 00:10:45;;;;;;;5.80;2.60;;;23.80;56.30;;;;;;5045966;28;20053;-64
2023/10/08 00:13:17;;;;;;;5.30;2.38;;;23.80;56.30;;;;;;5043249;28;20462;-61
2023/10/08 00:15:54;;;;;;;6.68;2.72;;;23.80;56.30;;;;;;5043627;28;20125;-64
2023/10/08 00:18:22;;;;;;;6.72;2.95;;;23.80;56.40;;;;;;5042041;28;20136;-63
2023/10/08 00:20:58;;;;;;;5.75;2.42;;;23.80;56.40;;;;;;5043278;28;20029;-64
2023/10/08 00:23:27;;;;;;;5.32;2.50;;;23.80;56.50;;;;;;5043217;28;20053;-63
2023/10/08 00:25:54;;;;;;;7.05;2.83;;;23.80;57.10;;;;;;5036881;28;20025;-62
2023/10/08 00:28:22;;;;;;;5.70;2.10;;;23.70;56.50;;;;;;5041388;28;20049;-63
2023/10/08 00:30:48;;;;;;;5.22;2.67;;;23.80;56.60;;;;;;5020352;28;20025;-64
2023/10/08 00:33:15;;;;;;;5.60;2.50;;;23.80;56.60;;;;;;5038901;28;20093;-62
2023/10/08 00:35:41;;;;;;;5.45;2.65;;;23.70;56.60;;;;;;5042745;28;20535;-62
2023/10/08 00:38:14;;;;;;;5.35;2.22;;;23.80;56.70;;;;;;5039940;28;20348;-62
2023/10/08 00:40:46;;;;;;;5.25;2.60;;;23.70;56.70;;;;;;5016624;28;20096;-62
2023/10/08 00:43:37;;;;;;;6.47;2.42;;;23.80;56.80;;;;;;5024630;28;20460;-63
2023/10/08 00:46:24;;;;;;;6.10;2.58;;;23.80;56.80;;;;;;5039371;28;20112;-64
2023/10/08 00:48:55;;;;;;;5.35;2.63;;;23.80;56.80;;;;;;5039743;28;20025;-64
2023/10/08 00:51:31;;;;;;;6.22;2.45;;;23.70;56.80;;;;;;5038065;28;20057;-61
2023/10/08 00:54:06;;;;;;;6.05;3.15;;;23.70;56.90;;;;;;5043165;28;20087;-64
2023/10/08 00:59:21;;;;;;;5.50;2.50;;;23.70;56.90;;;;;;5041218;28;20045;-62
2023/10/08 01:01:51;;;;;;;5.10;2.50;;;23.70;57.00;;;;;;5042029;28;20036;-63
2023/10/08 01:04:23;;;;;;;5.35;2.45;;;23.70;57.00;;;;;;5041680;28;20029;-64
2023/10/08 01:06:56;;;;;;;5.97;2.50;;;23.70;57.00;;;;;;5041280;28;20029;-63
2023/10/08 01:09:30;;;;;;;5.35;2.47;;;23.70;57.10;;;;;;5044531;28;20477;-63
2023/10/08 01:14:48;;;;;;;5.60;2.60;;;23.70;57.10;;;;;;5041955;28;20063;-60
2023/10/08 01:17:15;;;;;;;7.03;2.80;;;23.70;57.10;;;;;;5019826;28;20562;-62
2023/10/08 01:19:50;;;;;;;5.38;2.60;;;23.70;57.30;;;;;;5042000;28;20060;-62
2023/10/08 01:22:18;;;;;;;5.80;2.45;;;23.70;57.20;;;;;;5023845;28;20025;-64
2023/10/08 01:24:48;;;;;;;5.50;2.53;;;23.70;57.20;;;;;;5026368;28;20040;-63
2023/10/08 01:27:34;;;;;;;7.25;3.28;;;23.70;57.30;;;;;;5040623;28;20218;-65
2023/10/08 01:30:20;;;;;;;5.88;2.45;;;23.70;57.30;;;;;;5023125;28;20025;-63
2023/10/08 01:32:46;;;;;;;5.05;2.50;;;23.70;57.30;;;;;;5016508;28;20093;-61
2023/10/08 01:35:22;;;;;;;6.45;2.58;;;23.70;57.30;;;;;;5026717;28;20049;-63
2023/10/08 01:37:50;;;;;;;5.97;2.60;;;23.70;57.40;;;;;;5041930;28;20051;-64
2023/10/08 01:40:17;;;;;;;5.30;2.40;;;23.70;57.40;;;;;;5022562;28;20038;-65
2023/10/08 01:42:43;;;;;;;5.45;2.67;;;23.70;57.40;;;;;;5020310;28;20048;-63
2023/10/08 01:45:12;;;;;;;5.53;2.35;;;23.70;57.40;;;;;;5044321;28;20025;-61
2023/10/08 01:47:39;;;;;;;5.68;2.53;;;23.70;57.50;;;;;;5039159;28;20146;-62
2023/10/08 01:50:11;;;;;;;5.53;2.78;;;23.70;57.50;;;;;;5044171;28;20132;-64
2023/10/08 01:52:40;;;;;;;5.93;2.83;;;23.70;57.50;;;;;;5044402;28;20051;-62
2023/10/08 01:55:10;;;;;;;5.47;2.55;;;23.70;57.50;;;;;;5042406;28;20024;-62
2023/10/08 01:57:37;;;;;;;5.45;2.33;;;23.70;57.60;;;;;;5022389;28;20073;-62
2023/10/08 02:00:07;;;;;;;5.55;2.75;;;23.70;57.60;;;;;;5023852;28;20301;-62
2023/10/08 02:02:40;;;;;;;5.05;2.58;;;23.70;57.60;;;;;;5043436;28;20037;-65
2023/10/08 02:05:07;;;;;;;5.80;2.63;;;23.60;57.60;;;;;;5019519;28;20056;-63
2023/10/08 02:07:33;;;;;;;5.75;2.58;;;23.60;57.60;;;;;;5038902;28;20321;-61
2023/10/08 02:09:59;;;;;;;4.53;2.35;;;23.70;57.70;;;;;;5038763;28;20100;-64
2023/10/08 02:12:25;;;;;;;5.18;2.92;;;23.70;57.70;;;;;;5024435;28;20061;-63
2023/10/08 02:14:51;;;;;;;6.50;2.67;;;23.70;57.70;;;;;;5043155;28;20438;-62
2023/10/08 02:17:18;;;;;;;5.90;2.47;;;23.60;57.70;;;;;;5005008;28;20037;-62
2023/10/08 02:19:45;;;;;;;4.63;2.30;;;23.60;57.70;;;;;;5020287;28;20049;-60
2023/10/08 02:22:11;;;;;;;6.30;2.45;;;23.70;57.80;;;;;;5015846;28;20112;-63
2023/10/08 02:24:38;;;;;;;6.47;2.80;;;23.60;57.80;;;;;;5041926;28;20116;-61
2023/10/08 02:27:06;;;;;;;6.30;2.83;;;23.60;58.40;;;;;;5023979;28;20092;-63
2023/10/08 02:29:33;;;;;;;5.50;2.38;;;23.60;57.80;;;;;;5041404;28;20429;-61
2023/10/08 02:31:59;;;;;;;7.05;3.03;;;23.60;57.80;;;;;;5029080;28;20025;-64
2023/10/08 02:34:25;;;;;;;5.68;2.97;;;23.60;58.40;;;;;;5037658;28;20421;-63
2023/10/08 02:36:51;;;;;;;5.20;2.78;;;23.60;57.90;;;;;;5036677;28;20372;-61
2023/10/08 02:39:25;;;;;;;5.93;2.60;;;23.70;57.90;;;;;;5035158;28;20044;-63
2023/10/08 02:41:54;;;;;;;7.25;3.05;;;23.70;57.90;;;;;;5019468;28;20029;-64
2023/10/08 02:44:20;;;;;;;5.93;2.80;;;23.60;57.90;;;;;;5039236;28;20127;-62
2023/10/08 02:46:50;;;;;;;6.82;3.30;;;23.60;57.90;;;;;;5039017;28;20344;-61
2023/10/08 02:49:25;;;;;;;6.22;2.50;;;23.60;57.90;;;;;;5047192;28;20032;-63
2023/10/08 02:51:53;;;;;;;5.72;3.00;;;23.60;57.90;;;;;;5039093;28;20117;-64
2023/10/08 02:54:22;;;;;;;5.80;2.55;;;23.60;58.00;;;;;;5037923;28;20036;-63
2023/10/08 02:56:58;;;;;;;6.30;2.75;;;23.60;58.00;;;;;;5029617;28;20061;-64
2023/10/08 02:59:38;;;;;;;5.25;2.60;;;23.60;58.10;;;;;;5025006;28;20107;-63
2023/10/08 03:02:14;;;;;;;5.45;2.70;;;23.60;58.10;;;;;;5025312;28;20029;-62
2023/10/08 03:04:45;;;;;;;4.97;2.55;;;23.60;58.10;;;;;;5026668;28;20417;-61
2023/10/08 03:07:21;;;;;;;5.25;2.50;;;23.60;58.10;;;;;;5027394;28;20787;-61
2023/10/08 03:10:03;;;;;;;6.10;2.95;;;23.60;58.10;;;;;;5046677;28;20055;-61
2023/10/08 03:12:32;;;;;;;5.93;2.45;;;23.60;58.10;;;;;;5007851;28;20107;-64
2023/10/08 03:16:07;;;;;;;7.70;3.30;;;23.60;58.10;;;;;;5023129;28;20393;-64
2023/10/08 03:17:48;;;;;;;8.38;4.32;;;23.60;58.20;;;;;;5027789;28;20052;-63
2023/10/08 03:23:10;;;;;;;10.00;4.80;;;23.60;58.20;;;;;;5026174;28;20146;-63
2023/10/08 03:25:41;;;;;;;10.38;5.10;;;23.60;58.20;;;;;;5042817;28;20040;-63
2023/10/08 03:28:09;;;;;;;9.98;5.00;;;23.60;58.20;;;;;;5045177;28;20068;-64
2023/10/08 03:30:49;;;;;;;11.20;4.80;;;23.60;58.20;;;;;;5040576;28;20341;-65
2023/10/08 03:33:23;;;;;;;11.02;5.53;;;23.60;58.20;;;;;;5045237;28;20021;-64
2023/10/08 03:35:54;;;;;;;10.18;5.50;;;23.60;58.30;;;;;;5040887;28;20483;-63
2023/10/08 03:38:28;;;;;;;10.52;5.03;;;23.60;58.30;;;;;;5026508;28;20049;-62
2023/10/08 03:41:07;;;;;;;10.05;4.90;;;23.60;58.30;;;;;;5024940;28;20033;-61
2023/10/08 03:43:35;;;;;;;9.52;5.05;;;23.60;58.30;;;;;;5023763;28;20036;-64
2023/10/08 03:46:05;;;;;;;11.18;5.32;;;23.60;58.30;;;;;;5043409;28;20039;-64
2023/10/08 03:48:36;;;;;;;9.75;5.15;;;23.60;58.30;;;;;;5027582;28;20416;-61
2023/10/08 03:51:11;;;;;;;8.35;4.47;;;23.50;58.30;;;;;;5045522;28;20033;-64
2023/10/08 03:53:42;;;;;;;;;;;23.50;58.30;;;;;;5037436;28;20341;-62
2023/10/08 03:56:14;;;;;;;9.25;4.93;;;23.50;58.30;;;;;;5021822;28;19916;-62
2023/10/08 03:58:46;;;;;;;7.75;3.92;;;23.50;58.30;;;;;;5031774;28;20040;-62
2023/10/08 04:01:18;;;;;;;7.78;4.18;;;23.50;58.30;;;;;;5041716;28;20103;-64
2023/10/08 04:06:21;;;;;;;9.18;4.35;;;23.50;58.30;;;;;;5046330;28;20040;-64
2023/10/08 04:14:18;;;;;;;8.10;4.75;;;23.50;58.30;;;;;;5043595;28;20436;-64
2023/10/08 04:16:45;;;;;;;10.48;4.63;;;23.50;58.30;;;;;;5044535;28;20120;-61
2023/10/08 04:19:11;;;;;;;7.63;4.30;;;23.50;58.30;;;;;;5042069;28;20032;-61
2023/10/08 04:21:42;;;;;;;7.75;4.15;;;23.50;58.40;;;;;;5022041;28;20052;-64
2023/10/08 04:24:08;;;;;;;8.45;4.15;;;23.50;58.40;;;;;;5040127;28;20349;-64
2023/10/08 04:26:35;;;;;;;8.90;4.20;;;23.50;58.40;;;;;;5046302;28;20040;-62
2023/10/08 04:29:02;;;;;;;6.30;3.45;;;23.50;58.40;;;;;;5015055;28;20422;-64
2023/10/08 04:31:37;;;;;;;6.32;3.65;;;23.50;58.40;;;;;;5036897;28;20026;-64
2023/10/08 04:34:15;;;;;;;6.82;3.42;;;23.50;58.30;;;;;;5037842;28;20053;-62
2023/10/08 04:36:45;;;;;;;6.75;3.05;;;23.50;58.20;;;;;;5017477;28;20523;-63
2023/10/08 04:39:14;;;;;;;7.05;3.17;;;23.50;58.10;;;;;;5042732;28;20116;-61
2023/10/08 04:41:42;;;;;;;6.00;2.90;;;23.50;57.90;;;;;;5028587;28;20385;-64
2023/10/08 04:44:15;;;;;;;5.00;2.70;;;23.50;57.80;;;;;;5044139;28;20104;-64
2023/10/08 04:46:48;;;;;;;4.68;2.55;;;23.40;57.60;;;;;;5043410;28;20085;-62
2023/10/08 04:51:52;;;;;;;4.13;2.00;;;23.50;57.50;;;;;;5045812;28;20029;-63
2023/10/08 04:54:18;;;;;;;3.75;2.20;;;23.50;57.30;;;;;;5045627;28;20102;-61
2023/10/08 04:56:44;;;;;;;6.90;2.50;;;23.50;57.30;;;;;;5041709;28;20032;-63
2023/10/08 04:59:11;;;;;;;5.00;1.67;;;23.50;57.10;;;;;;5046566;28;20074;-63
2023/10/08 05:01:47;;;;;;;3.17;1.83;;;23.40;57.00;;;;;;5022862;28;20038;-61
2023/10/08 05:04:26;;;;;;;3.22;1.63;;;23.40;56.90;;;;;;5017995;28;20025;-62
2023/10/08 05:07:01;;;;;;;4.55;2.03;;;23.40;56.80;;;;;;5019687;28;20075;-62
2023/10/08 05:18:51;;;;;;;3.85;1.80;;;23.40;56.60;;;;;;5042518;28;20049;-61
2023/10/08 05:20:59;;;;;;;2.67;1.27;;;23.40;56.50;;;;;;5024705;28;20136;-63
2023/10/08 05:31:36;;;;;;;3.30;1.77;;;23.40;56.30;;;;;;5037194;28;20104;-64
2023/10/08 05:36:35;;;;;;;2.03;1.20;;;23.40;56.20;;;;;;5039247;28;20044;-62
2023/10/08 05:39:19;;;;;;;3.00;1.48;;;23.40;56.20;;;;;;5041045;28;20037;-61
2023/10/08 05:41:52;;;;;;;4.40;1.58;;;23.30;56.10;;;;;;5039183;28;20431;-61
2023/10/08 05:49:53;;;;;;;2.78;1.50;;;23.40;56.00;;;;;;4993658;28;20326;-63
2023/10/08 05:52:27;;;;;;;3.70;1.33;;;23.30;55.90;;;;;;5037356;28;20136;-64
2023/10/08 05:58:13;;;;;;;3.10;1.20;;;23.30;55.80;;;;;;4973423;28;20090;-63
2023/10/08 06:03:35;;;;;;;1.58;0.98;;;23.30;55.60;;;;;;5040351;28;20025;-64
2023/10/08 06:12:10;;;;;;;1.80;0.90;;;23.30;55.50;;;;;;5036591;28;20043;-61
2023/10/08 06:14:28;;;;;;;2.70;1.23;;;23.30;55.40;;;;;;5023073;28;20477;-61
2023/10/08 06:17:33;;;;;;;2.47;1.17;;;23.30;55.40;;;;;;5040335;28;20056;-64
2023/10/08 06:19:40;;;;;;;3.25;1.38;;;23.30;55.30;;;;;;5035105;28;20049;-61
2023/10/08 06:22:06;;;;;;;1.95;0.85;;;23.30;55.20;;;;;;5042631;28;20100;-64
2023/10/08 06:24:33;;;;;;;2.25;1.17;;;23.20;55.10;;;;;;5022920;28;20602;-62
2023/10/08 06:27:04;;;;;;;1.83;0.90;;;23.30;55.10;;;;;;5041578;28;20064;-62
2023/10/08 06:29:32;;;;;;;2.58;0.90;;;23.30;55.10;;;;;;5037642;28;20130;-61
2023/10/08 06:32:02;;;;;;;2.25;1.10;;;23.30;55.00;;;;;;5045227;28;20152;-61
2023/10/08 06:34:31;;;;;;;2.33;1.15;;;23.20;54.90;;;;;;5044857;28;20045;-62
2023/10/08 06:36:59;;;;;;;1.88;0.95;;;23.20;54.90;;;;;;5046707;28;20147;-64
2023/10/08 06:39:47;;;;;;;2.63;1.02;;;23.30;54.90;;;;;;5043811;28;20044;-65
2023/10/08 06:42:12;;;;;;;3.10;1.13;;;23.20;54.80;;;;;;5045947;28;20043;-63
2023/10/08 06:44:42;;;;;;;1.98;0.93;;;23.30;54.80;;;;;;5043550;28;20032;-65
2023/10/08 06:47:09;;;;;;;3.67;1.08;;;23.20;54.70;;;;;;5046569;28;20069;-63
2023/10/08 06:49:35;;;;;;;2.00;1.00;;;23.20;54.70;;;;;;5044676;28;20505;-61
2023/10/08 06:52:02;;;;;;;1.67;0.95;;;23.20;54.60;;;;;;5019329;28;20056;-61
2023/10/08 06:54:30;;;;;;;1.98;1.00;;;23.20;54.50;;;;;;5018371;28;20037;-62
2023/10/08 06:56:56;;;;;;;2.90;1.13;;;23.20;54.50;;;;;;5040897;28;20407;-62
2023/10/08 06:59:23;;;;;;;2.08;0.73;;;23.20;54.40;;;;;;5040816;28;20033;-61
2023/10/08 07:01:51;;;;;;;2.05;1.10;;;23.20;54.40;;;;;;5038617;28;20425;-63
2023/10/08 07:04:18;;;;;;;1.65;0.90;;;23.20;54.30;;;;;;5039218;28;20112;-66
2023/10/08 07:06:48;;;;;;;1.83;1.00;;;23.20;54.30;;;;;;5040587;28;20052;-62
2023/10/08 07:09:29;;;;;;;1.98;0.90;;;23.20;54.30;;;;;;5037514;28;20025;-63
2023/10/08 07:12:05;;;;;;;1.60;0.90;;;23.20;54.40;;;;;;5040212;28;20068;-62
2023/10/08 07:14:31;;;;;;;1.70;0.82;;;23.20;54.40;;;;;;5042052;28;20032;-62
2023/10/08 07:16:59;;;;;;;2.55;1.10;;;23.20;54.30;;;;;;5025603;28;20368;-62
2023/10/08 07:19:37;;;;;;;2.03;0.90;;;23.20;54.30;;;;;;5043439;28;20650;-63
2023/10/08 07:22:28;;;;;;;1.80;0.90;;;23.20;54.20;;;;;;5026096;28;20047;-64
2023/10/08 07:24:54;;;;;;;1.90;1.00;;;23.20;54.20;;;;;;5040554;28;20036;-63
2023/10/08 07:27:21;;;;;;;2.92;1.00;;;23.20;54.20;;;;;;5044915;28;20029;-61
2023/10/08 07:29:48;;;;;;;1.25;0.90;;;23.20;54.10;;;;;;5039340;28;20142;-61
2023/10/08 07:32:18;;;;;;;2.25;1.13;;;23.20;54.10;;;;;;5041427;28;20038;-63
2023/10/08 07:34:44;;;;;;;2.58;0.80;;;23.20;54.00;;;;;;5043114;28;20366;-63
2023/10/08 07:37:11;;;;;;;2.40;1.20;;;23.20;54.00;;;;;;5045532;28;20452;-63
2023/10/08 07:39:45;;;;;;;1.15;0.80;;;23.20;53.90;;;;;;5044904;28;20025;-64
2023/10/08 07:42:11;;;;;;;1.08;0.70;;;23.20;53.90;;;;;;5048848;28;20096;-62
2023/10/08 07:44:38;;;;;;;1.73;1.17;;;23.20;54.00;;;;;;5046839;28;20146;-64
2023/10/08 07:47:10;;;;;;;1.52;1.05;;;23.20;53.90;;;;;;5047068;28;20051;-66
2023/10/08 07:49:36;;;;;;;2.22;0.80;;;23.20;53.80;;;;;;5047775;28;20090;-63
2023/10/08 07:52:05;;;;;;;1.63;0.80;;;23.20;53.80;;;;;;5049250;28;20046;-64
2023/10/08 07:54:34;;;;;;;0.90;0.70;;;23.20;53.80;;;;;;5045248;28;20060;-63
2023/10/08 07:57:10;;;;;;;1.30;0.60;;;23.20;53.70;;;;;;5047492;28;20091;-65
2023/10/08 07:59:38;;;;;;;0.80;0.70;;;23.20;53.70;;;;;;5047651;28;20036;-65
2023/10/08 08:02:12;;;;;;;1.05;0.82;;;23.20;53.60;;;;;;5049184;28;20032;-63
2023/10/08 08:04:43;;;;;;;1.10;0.80;;;23.20;53.60;;;;;;5047414;28;20033;-63
2023/10/08 08:07:18;;;;;;;0.75;0.70;;;23.20;53.50;;;;;;5048009;28;20021;-66
2023/10/08 08:09:50;;;;;;;1.50;0.98;;;23.20;53.50;;;;;;5046033;28;20040;-65
2023/10/08 08:12:25;;;;;;;1.48;0.90;;;23.20;53.50;;;;;;5031624;28;20283;-62
2023/10/08 08:14:54;;;;;;;;;;;23.20;53.40;;;;;;5043893;28;20115;-61
2023/10/08 08:17:23;;;;;;;0.80;0.75;;;23.20;53.50;;;;;;5016735;28;19917;-66
2023/10/08 08:19:50;;;;;;;1.05;0.70;;;23.20;53.50;;;;;;5041374;28;20033;-63
2023/10/08 08:22:30;;;;;;;0.98;0.88;;;23.20;53.50;;;;;;5053415;28;20094;-59
2023/10/08 08:25:15;;;;;;;1.48;0.90;;;23.20;53.50;;;;;;5052987;28;20490;-63
2023/10/08 08:27:46;;;;;;;1.00;0.90;;;23.20;53.50;;;;;;5042388;28;20083;-63
2023/10/08 08:30:15;;;;;;;1.02;0.80;;;23.20;53.60;;;;;;5033732;28;20184;-55
2023/10/08 08:32:47;;;;;;;1.45;1.00;;;23.20;53.70;;;;;;5033414;28;20034;-56
2023/10/08 08:35:16;;;;;;;3.40;0.90;;;23.20;53.80;;;;;;5037549;28;20128;-55
2023/10/08 08:37:46;;;;;;;1.75;1.00;;;23.20;53.80;;;;;;5048159;28;20056;-56
2023/10/08 08:40:18;;;;;;;1.20;0.73;;;23.20;53.80;;;;;;5046398;28;20103;-51
2023/10/08 08:42:49;;;;;;;1.40;0.90;;;23.10;53.70;;;;;;5048345;28;20081;-54
2023/10/08 08:45:20;;;;;;;3.03;1.05;;;23.10;53.80;;;;;;5046368;28;20464;-49
2023/10/08 08:47:48;;;;;;;2.13;1.15;;;23.10;53.90;;;;;;5045521;28;20025;-54
2023/10/08 08:50:14;;;;;;;4.65;1.00;;;23.10;54.00;;;;;;5046579;28;20029;-51
2023/10/08 08:52:40;;;;;;;3.03;1.02;;;23.00;54.10;;;;;;5048403;28;20062;-52
2023/10/08 08:55:17;;;;;;;1.95;1.00;;;23.00;54.10;;;;;;5027957;28;20136;-52
2023/10/08 08:57:52;;;;;;;2.35;1.00;;;23.00;54.20;;;;;;5047794;28;20109;-60
2023/10/08 09:00:20;;;;;;;3.42;1.50;;;23.00;54.20;;;;;;5047957;28;20021;-60
2023/10/08 09:02:49;;;;;;;14.02;6.80;;;23.00;54.30;;;;;;5028678;28;20025;-62
2023/10/08 09:05:33;;;;;;;18.10;9.13;;;23.00;54.80;;;;;;5044854;28;20020;-67
2023/10/08 09:08:03;;;;;;;;;;;23.00;55.80;;;;;;5045773;28;20108;-60
2023/10/08 09:10:36;;;;;;;16.58;8.63;;;23.00;56.50;;;;;;5046162;28;19909;-63
2023/10/08 09:13:03;;;;;;;19.63;8.82;;;23.10;57.00;;;;;;5047215;28;20040;-61
2023/10/08 09:15:29;;;;;;;19.48;8.95;;;23.10;57.40;;;;;;5045862;28;20157;-58
2023/10/08 09:17:56;;;;;;;21.63;8.90;;;23.10;58.00;;;;;;5046535;28;20036;-63
2023/10/08 09:20:26;;;;;;;22.00;9.45;;;23.20;58.50;;;;;;5026396;28;20098;-60
2023/10/08 09:23:25;;;;;;;19.60;9.13;;;23.20;59.00;;;;;;5042616;28;20048;-61
2023/10/08 09:25:53;;;;;;;16.48;7.72;;;23.20;59.30;;;;;;5028990;28;20048;-59
2023/10/08 09:28:24;;;;;;;18.50;8.30;;;23.30;59.30;;;;;;5046353;28;20024;-60
2023/10/08 09:30:52;;;;;;;34.17;12.23;;;23.30;59.10;;;;;;5046444;28;20122;-60
2023/10/08 09:33:18;;;;;;;32.00;12.32;;;23.30;59.10;;;;;;5045655;28;20052;-59
2023/10/08 09:35:46;;;;;;;29.55;11.27;;;23.30;59.00;;;;;;5044504;28;20420;-60
2023/10/08 09:38:12;;;;;;;26.25;10.90;;;23.30;58.60;;;;;;5045714;28;20071;-61
2023/10/08 09:40:43;;;;;;;23.83;11.32;;;23.30;58.80;;;;;;5045738;28;20090;-58
2023/10/08 09:43:15;;;;;;;24.30;11.73;;;23.40;59.40;;;;;;5024950;28;20025;-59
2023/10/08 09:45:51;;;;;;;25.40;11.05;;;23.40;59.70;;;;;;5026518;28;20112;-62
2023/10/08 09:48:19;;;;;;;20.00;10.60;;;23.40;59.90;;;;;;5046084;28;20769;-60
2023/10/08 09:50:48;;;;;;;18.90;8.70;;;23.40;59.80;;;;;;5040591;28;20056;-61
2023/10/08 09:53:16;;;;;;;14.88;8.10;;;23.50;60.10;;;;;;5040606;28;20094;-62
2023/10/08 09:55:54;;;;;;;13.98;6.10;;;23.50;59.10;;;;;;5043457;28;20539;-60
2023/10/08 09:58:25;;;;;;;12.68;6.65;;;23.50;58.60;;;;;;5029289;28;20029;-61
2023/10/08 10:00:53;;;;;;;12.02;5.97;;;23.50;58.10;;;;;;5045050;28;20029;-55
2023/10/08 10:03:22;;;;;;;7.93;3.30;;;23.50;57.70;;;;;;5043531;28;20395;-54
2023/10/08 10:05:51;;;;;;;5.47;2.55;;;23.50;57.20;;;;;;5042695;28;20148;-54
2023/10/08 10:08:19;;;;;;;4.15;1.70;;;23.50;56.60;;;;;;5042388;28;20452;-54
2023/10/08 10:10:47;;;;;;;3.78;1.60;;;23.40;56.10;;;;;;5035319;28;20036;-51
2023/10/08 10:13:16;;;;;;;3.90;1.88;;;23.40;55.90;;;;;;5039170;28;20144;-53
2023/10/08 10:15:43;;;;;;;4.22;2.17;;;23.30;55.70;;;;;;5037083;28;20108;-50
2023/10/08 10:18:14;;;;;;;3.10;1.55;;;23.30;55.70;;;;;;5036836;28;20060;-53
2023/10/08 10:21:19;;;;;;;8.13;2.13;;;23.30;55.60;;;;;;5036250;28;20028;-51
2023/10/08 10:23:50;;;;;;;4.90;1.98;;;23.20;55.50;;;;;;5038700;28;20083;-52
2023/10/08 10:26:35;;;;;;;3.20;1.60;;;23.20;55.60;;;;;;5041292;28;20232;-63
2023/10/08 10:29:16;;;;;;;3.38;1.67;;;23.20;55.40;;;;;;5024934;28;20025;-61
2023/10/08 10:31:53;;;;;;;7.20;2.65;;;23.20;55.40;;;;;;5041916;28;20037;-61
2023/10/08 10:34:21;;;;;;;6.75;2.75;;;23.20;55.30;;;;;;5039458;28;20441;-53
2023/10/08 10:36:54;;;;;;;6.68;2.75;;;23.20;55.30;;;;;;5038678;28;20040;-59
2023/10/08 10:39:26;;;;;;;5.72;2.78;;;23.30;55.20;;;;;;5043908;28;20471;-60
2023/10/08 10:41:57;;;;;;;6.15;2.53;;;23.30;55.20;;;;;;5025743;28;20029;-57
2023/10/08 10:44:26;;;;;;;5.35;2.63;;;23.30;55.20;;;;;;5046520;28;20318;-63
2023/10/08 10:47:25;;;;;;;6.45;2.97;;;23.30;55.00;;;;;;5039620;28;20043;-59
2023/10/08 10:52:51;;;;;;;5.18;2.65;;;23.40;54.80;;;;;;5041710;28;20091;-63
2023/10/08 10:55:20;;;;;;;6.25;2.10;;;23.40;54.70;;;;;;5040044;28;20037;-66
2023/10/08 10:58:04;;;;;;;4.97;2.03;;;23.40;54.50;;;;;;5029160;28;20057;-67
2023/10/08 11:03:09;;;;;;;3.65;2.10;;;23.50;54.40;;;;;;5045180;28;20136;-61
2023/10/08 11:05:38;;;;;;;4.50;2.33;;;23.40;54.10;;;;;;5018641;28;20124;-63
2023/10/08 11:08:07;;;;;;;5.32;2.10;;;23.40;54.10;;;;;;5046660;28;20055;-64
2023/10/08 11:10:34;;;;;;;4.78;2.00;;;23.50;54.00;;;;;;5043959;28;20032;-62
2023/10/08 11:13:01;;;;;;;5.55;2.00;;;23.50;53.90;;;;;;5041323;28;20044;-63
2023/10/08 11:15:40;;;;;;;3.67;1.65;;;23.50;53.70;;;;;;5027592;28;20028;-60
2023/10/08 11:18:15;;;;;;;4.47;1.70;;;23.50;53.60;;;;;;5025623;28;20432;-60
2023/10/08 11:20:44;;;;;;;2.72;1.40;;;23.50;53.40;;;;;;5029828;28;20041;-57
2023/10/08 11:23:32;;;;;;;3.28;1.67;;;23.50;53.30;;;;;;5045720;28;20077;-61
2023/10/08 11:26:04;;;;;;;3.10;1.20;;;23.50;53.00;;;;;;5020276;28;20147;-61
2023/10/08 11:28:42;;;;;;;3.47;1.38;;;23.50;53.00;;;;;;5028999;28;20040;-60
2023/10/08 11:31:11;;;;;;;3.80;1.38;;;23.50;52.80;;;;;;5048484;28;20032;-59
2023/10/08 11:33:42;;;;;;;3.67;1.15;;;23.50;52.70;;;;;;5024976;28;20025;-60
2023/10/08 11:36:18;;;;;;;3.00;1.30;;;23.50;52.60;;;;;;5039069;28;20267;-62
2023/10/08 11:38:50;;;;;;;2.95;1.42;;;23.50;52.50;;;;;;5044732;28;20405;-61
2023/10/08 11:41:20;;;;;;;2.80;1.20;;;23.50;52.40;;;;;;5040676;28;20158;-60
2023/10/08 11:44:00;;;;;;;2.00;1.00;;;23.50;52.30;;;;;;5044192;28;20107;-61
2023/10/08 11:46:32;;;;;;;1.52;0.90;;;23.60;52.20;;;;;;5039091;28;20389;-59
2023/10/08 11:49:04;;;;;;;1.90;0.88;;;23.50;52.20;;;;;;5020818;28;20127;-63
2023/10/08 11:51:33;;;;;;;1.92;0.80;;;23.50;52.10;;;;;;5024886;28;20056;-61
2023/10/08 11:54:05;;;;;;;2.00;1.02;;;23.50;52.00;;;;;;5041626;28;20429;-61
2023/10/08 11:56:33;;;;;;;1.98;0.80;;;23.50;51.90;;;;;;5018672;28;20048;-61
2023/10/08 11:59:05;;;;;;;1.25;0.63;;;23.50;51.90;;;;;;5036947;28;20128;-61
2023/10/08 12:01:35;;;;;;;1.05;0.70;;;23.50;51.80;;;;;;5035329;28;20139;-61
2023/10/08 12:04:01;;;;;;;2.53;0.70;;;23.50;51.80;;;;;;5042237;28;20065;-61
2023/10/08 12:06:30;;;;;;;1.38;0.77;;;23.50;51.70;;;;;;5044079;28;20032;-61
2023/10/08 12:08:58;;;;;;;2.17;0.80;;;23.50;51.70;;;;;;5020971;28;20482;-57
2023/10/08 12:11:31;;;;;;;2.33;1.05;;;23.50;51.60;;;;;;5022835;28;20029;-60
2023/10/08 12:13:59;;;;;;;2.15;1.02;;;23.60;51.70;;;;;;5039321;28;20116;-57
2023/10/08 12:16:29;;;;;;;2.22;0.90;;;23.60;52.00;;;;;;5038608;28;20124;-60
2023/10/08 12:18:59;;;;;;;2.00;1.05;;;23.50;52.10;;;;;;5045096;28;20028;-57
2023/10/08 12:21:29;;;;;;;1.98;0.98;;;23.60;52.90;;;;;;5023808;28;20044;-62
2023/10/08 12:23:57;;;;;;;3.30;1.10;;;23.60;52.40;;;;;;5046204;28;20136;-56
2023/10/08 12:26:23;;;;;;;2.42;1.02;;;23.60;52.50;;;;;;5044549;28;20075;-50
2023/10/08 12:28:49;;;;;;;2.45;1.13;;;23.60;52.50;;;;;;5043721;28;20402;-62
2023/10/08 12:31:29;;;;;;;1.95;1.00;;;23.60;52.60;;;;;;5041081;28;20113;-59
2023/10/08 12:34:00;;;;;;;2.67;1.30;;;23.60;52.60;;;;;;5042462;28;20033;-60
2023/10/08 12:36:32;;;;;;;2.72;0.90;;;23.70;52.60;;;;;;5039274;28;20433;-59
2023/10/08 12:38:58;;;;;;;1.60;1.10;;;23.70;52.60;;;;;;5018425;28;20073;-61
2023/10/08 12:41:27;;;;;;;1.67;1.10;;;23.70;52.60;;;;;;5039473;28;20124;-60
2023/10/08 12:43:54;;;;;;;2.05;0.95;;;23.70;52.60;;;;;;5038181;28;20025;-59
2023/10/08 12:46:24;;;;;;;1.77;1.10;;;23.70;52.60;;;;;;5001139;28;20025;-60
2023/10/08 12:48:54;;;;;;;1.40;0.90;;;23.70;52.60;;;;;;5038630;28;20094;-59
2023/10/08 12:51:24;;;;;;;2.28;1.15;;;23.70;52.50;;;;;;5041455;28;20153;-60
2023/10/08 12:54:03;;;;;;;1.45;0.85;;;23.70;52.50;;;;;;5041295;28;20025;-61
2023/10/08 12:56:38;;;;;;;1.02;0.80;;;23.70;52.50;;;;;;5036966;28;20104;-58
2023/10/08 12:59:06;;;;;;;1.55;0.90;;;23.70;52.50;;;;;;5040413;28;20389;-62
2023/10/08 13:01:36;;;;;;;1.38;0.70;;;23.70;52.50;;;;;;5042703;28;20067;-62
2023/10/08 13:04:07;;;;;;;2.05;0.77;;;23.70;52.50;;;;;;5042707;28;20028;-59
2023/10/08 13:06:37;;;;;;;1.38;0.70;;;23.70;52.50;;;;;;5039658;28;20077;-59
2023/10/08 13:09:11;;;;;;;1.30;0.60;;;23.80;53.20;;;;;;5024160;28;20334;-58
2023/10/08 13:11:39;;;;;;;0.85;0.60;;;23.70;52.60;;;;;;5035021;28;20052;-54
2023/10/08 13:14:05;;;;;;;1.65;0.80;;;23.70;52.70;;;;;;5041535;28;20082;-56
2023/10/08 13:16:31;;;;;;;1.92;0.85;;;23.80;52.80;;;;;;5042632;28;20840;-60
2023/10/08 13:18:59;;;;;;;0.70;0.60;;;23.70;52.80;;;;;;5039814;28;20031;-57
2023/10/08 13:21:28;;;;;;;1.02;0.70;;;23.80;52.90;;;;;;5039552;28;20033;-59
2023/10/08 13:23:59;;;;;;;1.50;0.70;;;23.80;52.90;;;;;;5042843;28;21624;-58
2023/10/08 13:26:30;;;;;;;1.48;0.75;;;23.70;52.90;;;;;;5034386;28;20044;-57
2023/10/08 13:29:00;;;;;;;1.10;0.70;;;23.80;53.00;;;;;;5039176;28;20037;-58
2023/10/08 13:31:29;;;;;;;2.13;0.70;;;23.80;53.10;;;;;;5023566;28;20112;-59
2023/10/08 13:34:02;;;;;;;1.17;0.60;;;23.80;53.10;;;;;;5040055;28;20029;-58
2023/10/08 13:36:28;;;;;;;1.25;0.70;;;23.80;53.10;;;;;;5044142;28;20055;-63
2023/10/08 13:38:55;;;;;;;1.60;0.70;;;23.80;53.10;;;;;;5045428;28;20301;-57
2023/10/08 13:41:21;;;;;;;1.55;0.70;;;23.80;53.10;;;;;;5020817;28;20044;-60
2023/10/08 13:44:05;;;;;;;1.33;0.47;;;23.80;53.10;;;;;;5041632;28;20448;-60
2023/10/08 13:46:31;;;;;;;1.70;0.60;;;23.80;53.20;;;;;;5038336;28;20341;-61
2023/10/08 13:48:57;;;;;;;1.25;0.47;;;23.80;53.10;;;;;;5036149;28;20029;-61
2023/10/08 13:51:25;;;;;;;1.20;0.63;;;23.80;53.10;;;;;;5018115;28;20033;-59
2023/10/08 13:54:06;;;;;;;1.85;0.60;;;23.80;53.00;;;;;;5022498;28;20425;-60
2023/10/08 13:56:33;;;;;;;0.70;0.40;;;23.80;53.00;;;;;;5019796;28;20056;-62
2023/10/08 13:59:12;;;;;;;1.10;0.55;;;23.80;53.00;;;;;;5041315;28;20165;-59
2023/10/08 14:01:40;;;;;;;1.00;0.52;;;23.80;52.90;;;;;;5038186;28;20048;-61
2023/10/08 14:04:09;;;;;;;1.45;0.63;;;23.80;52.90;;;;;;5039348;28;20039;-58
2023/10/08 14:06:42;;;;;;;1.17;0.65;;;23.80;52.90;;;;;;5043087;28;20051;-61